Time;durP1;ratioP1;P1;durP2;ratioP2;P2;SDS_P1;SDS_P2;PMS_P1;PMS_P2;Temp;Humidity;BMP_temperature;BMP_pressure;BME280_temperature;BME280_humidity;BME280_pressure;Samples;Min_cycle;Max_cycle;Signal;HPM_P1;HPM_P2
2023/07/07 00:00:31;;;;;;;2.90;2.70;;;13.80;99.90;;;;;;5077015;28;20915;-73
2023/07/07 00:02:57;;;;;;;6.73;2.20;;;13.80;99.90;;;;;;5094740;28;20387;-69
2023/07/07 00:05:25;;;;;;;3.10;2.40;;;13.70;99.90;;;;;;5076944;28;20431;-68
2023/07/07 00:07:51;;;;;;;4.73;2.80;;;13.70;99.90;;;;;;5078285;28;20184;-71
2023/07/07 00:10:18;;;;;;;2.83;2.63;;;13.70;1.00;;;;;;5056924;28;20387;-74
2023/07/07 00:12:45;;;;;;;2.80;2.30;;;13.60;1.00;;;;;;5076308;28;20166;-74
2023/07/07 00:15:11;;;;;;;4.43;2.43;;;13.60;1.00;;;;;;5075950;28;20470;-73
2023/07/07 00:20:45;;;;;;;4.50;2.60;;;13.60;1.00;;;;;;5095281;28;20731;-73
2023/07/07 00:23:12;;;;;;;38.87;21.73;;;13.50;1.00;;;;;;5078034;28;20378;-71
2023/07/07 00:25:38;;;;;;;34.50;22.03;;;13.50;1.00;;;;;;5096132;28;20917;-69
2023/07/07 00:28:04;;;;;;;11.10;7.80;;;13.50;1.00;;;;;;5094627;28;20377;-71
2023/07/07 00:30:30;;;;;;;5.00;4.07;;;13.60;1.00;;;;;;5074862;28;20515;-72
2023/07/07 00:32:56;;;;;;;3.77;3.40;;;13.60;1.00;;;;;;5075841;28;20404;-69
2023/07/07 00:35:25;;;;;;;3.17;2.97;;;13.60;1.00;;;;;;5075934;28;20452;-73
2023/07/07 00:37:51;;;;;;;3.67;2.70;;;13.70;1.00;;;;;;5076010;28;20417;-69
2023/07/07 00:40:19;;;;;;;2.90;2.70;;;13.70;1.00;;;;;;5074088;28;20481;-69
2023/07/07 00:42:48;;;;;;;2.97;2.77;;;13.70;1.00;;;;;;5085844;28;20419;-73
2023/07/07 00:45:18;;;;;;;2.40;2.30;;;13.70;1.00;;;;;;5094375;28;20521;-69
2023/07/07 00:47:59;;;;;;;3.00;2.70;;;13.70;1.00;;;;;;5077012;28;20422;-74
2023/07/07 00:50:45;;;;;;;2.47;2.27;;;13.70;1.00;;;;;;5094933;28;20560;-69
2023/07/07 00:53:12;;;;;;;2.63;2.43;;;13.70;1.00;;;;;;5095894;28;20913;-71
2023/07/07 00:56:04;;;;;;;;;;;;;;;;;;;;;
2023/07/07 00:58:52;;;;;;;2.83;2.63;;;13.70;1.00;;;;;;5074310;28;20433;-72
2023/07/07 01:02:09;;;;;;;11.60;8.30;;;13.60;1.00;;;;;;5093227;28;20939;-69
2023/07/07 01:04:37;;;;;;;3.50;3.20;;;13.50;1.00;;;;;;5076409;28;20454;-73
2023/07/07 01:07:08;;;;;;;2.67;2.47;;;13.50;1.00;;;;;;5095526;28;20423;-69
2023/07/07 01:09:34;;;;;;;2.90;2.63;;;13.40;1.00;;;;;;5080922;28;20386;-69
2023/07/07 01:18:50;;;;;;;2.20;2.00;;;13.30;1.00;;;;;;5094937;28;20421;-69
2023/07/07 01:21:37;;;;;;;3.80;2.50;;;13.30;1.00;;;;;;5094421;28;20407;-69
2023/07/07 01:24:41;;;;;;;2.93;2.73;;;13.20;1.00;;;;;;5094650;28;20443;-71
2023/07/07 01:27:35;;;;;;;3.00;2.63;;;13.20;1.00;;;;;;5095122;28;20362;-73
2023/07/07 01:30:20;;;;;;;3.23;3.03;;;13.10;1.00;;;;;;5093276;28;20946;-72
2023/07/07 01:32:47;;;;;;;2.60;2.40;;;13.10;1.00;;;;;;5094904;28;20382;-69
2023/07/07 01:35:22;;;;;;;3.40;2.60;;;13.10;1.00;;;;;;5076173;28;20429;-69
2023/07/07 01:37:59;;;;;;;3.47;3.17;;;13.00;1.00;;;;;;5094980;28;20435;-69
2023/07/07 01:40:52;;;;;;;2.70;2.50;;;13.00;1.00;;;;;;5072598;28;20407;-74
2023/07/07 01:43:45;;;;;;;3.00;2.40;;;13.00;1.00;;;;;;5068214;28;20432;-73
2023/07/07 01:46:31;;;;;;;3.20;3.00;;;13.00;1.00;;;;;;5074519;28;20419;-69
2023/07/07 01:49:20;;;;;;;4.40;2.50;;;12.90;1.00;;;;;;5072417;28;20437;-68
2023/07/07 01:52:13;;;;;;;2.43;2.23;;;12.90;1.00;;;;;;5093676;28;20400;-70
2023/07/07 01:54:46;;;;;;;3.20;2.77;;;12.90;1.00;;;;;;5093843;28;20443;-69
2023/07/07 01:57:14;;;;;;;2.63;2.17;;;12.90;1.00;;;;;;5085466;28;20406;-73
2023/07/07 01:59:41;;;;;;;2.67;2.50;;;12.90;1.00;;;;;;5080346;28;20406;-69
2023/07/07 02:02:07;;;;;;;2.70;2.57;;;12.80;1.00;;;;;;5075627;28;20427;-72
2023/07/07 02:04:33;;;;;;;3.20;2.30;;;12.80;1.00;;;;;;5094412;28;20528;-73
2023/07/07 02:06:59;;;;;;;2.70;2.60;;;12.80;1.00;;;;;;5094237;28;20487;-68
2023/07/07 02:09:36;;;;;;;7.03;2.17;;;12.80;1.00;;;;;;5062975;28;20387;-73
2023/07/07 02:12:02;;;;;;;3.13;2.83;;;12.70;1.00;;;;;;5073252;28;20855;-69
2023/07/07 02:14:28;;;;;;;2.90;2.70;;;12.70;1.00;;;;;;5081795;28;20454;-69
2023/07/07 02:16:54;;;;;;;2.43;2.23;;;12.70;1.00;;;;;;5093401;28;20769;-74
2023/07/07 02:19:20;;;;;;;4.17;3.87;;;12.70;1.00;;;;;;5094144;28;20411;-70
2023/07/07 02:21:46;;;;;;;3.00;2.80;;;12.70;1.00;;;;;;5093226;28;20492;-73
2023/07/07 02:24:12;;;;;;;2.70;2.37;;;12.60;1.00;;;;;;5075609;28;20448;-70
2023/07/07 02:26:38;;;;;;;5.03;2.90;;;12.60;1.00;;;;;;5075122;28;20439;-73
2023/07/07 02:29:14;;;;;;;2.73;2.53;;;12.60;1.00;;;;;;5092442;28;20503;-68
2023/07/07 02:31:40;;;;;;;2.57;2.37;;;12.60;1.00;;;;;;5092811;28;20369;-69
2023/07/07 02:34:06;;;;;;;2.50;2.30;;;12.60;1.00;;;;;;5073913;28;20505;-69
2023/07/07 02:36:32;;;;;;;13.27;3.10;;;12.50;1.00;;;;;;5093222;28;20459;-73
2023/07/07 02:39:00;;;;;;;3.10;2.80;;;12.50;1.00;;;;;;5084343;28;20641;-72
2023/07/07 02:41:26;;;;;;;2.53;2.30;;;12.50;1.00;;;;;;5054702;28;20531;-71
2023/07/07 02:43:52;;;;;;;3.17;2.97;;;12.50;1.00;;;;;;5073546;28;20399;-69
2023/07/07 02:46:18;;;;;;;3.27;2.97;;;12.50;1.00;;;;;;5093524;28;20385;-74
2023/07/07 02:48:44;;;;;;;3.30;3.03;;;12.50;1.00;;;;;;5093565;28;20411;-69
2023/07/07 02:51:10;;;;;;;3.03;2.70;;;12.40;1.00;;;;;;5091996;28;20173;-69
2023/07/07 02:53:37;;;;;;;3.53;3.03;;;12.40;1.00;;;;;;5091670;28;20586;-71
2023/07/07 02:56:03;;;;;;;3.30;2.97;;;12.40;1.00;;;;;;5075138;28;20425;-72
2023/07/07 02:58:29;;;;;;;3.47;3.17;;;12.40;1.00;;;;;;5075142;28;20403;-72
2023/07/07 03:01:09;;;;;;;3.30;3.10;;;12.40;1.00;;;;;;5088750;28;20777;-70
2023/07/07 03:03:37;;;;;;;2.70;2.50;;;12.40;1.00;;;;;;5093265;28;20423;-69
2023/07/07 03:06:05;;;;;;;3.43;3.13;;;12.40;1.00;;;;;;5093269;28;20374;-73
2023/07/07 03:08:31;;;;;;;3.87;3.47;;;12.40;1.00;;;;;;5068702;28;20516;-72
2023/07/07 03:10:57;;;;;;;3.87;3.57;;;12.30;1.00;;;;;;5071983;28;20413;-69
2023/07/07 03:13:23;;;;;;;7.33;3.70;;;12.30;1.00;;;;;;5072270;28;20507;-69
2023/07/07 03:15:49;;;;;;;6.30;3.60;;;12.30;1.00;;;;;;5055216;28;20208;-71
2023/07/07 03:18:15;;;;;;;6.57;3.87;;;12.30;1.00;;;;;;5082772;28;20189;-73
2023/07/07 03:20:48;;;;;;;3.50;3.30;;;12.30;1.00;;;;;;5092370;28;20396;-69
2023/07/07 03:23:18;;;;;;;5.03;4.20;;;12.30;1.00;;;;;;5092600;28;20370;-73
2023/07/07 03:25:43;;;;;;;4.07;3.70;;;12.30;1.00;;;;;;5074928;28;20383;-69
2023/07/07 03:28:53;;;;;;;3.80;3.40;;;12.30;1.00;;;;;;5075033;28;20390;-69
2023/07/07 03:31:22;;;;;;;9.50;4.47;;;12.30;1.00;;;;;;5054222;28;20508;-71
2023/07/07 03:34:07;;;;;;;4.50;3.70;;;12.30;1.00;;;;;;5071882;28;20424;-73
2023/07/07 03:36:35;;;;;;;3.73;3.43;;;12.30;1.00;;;;;;5073194;28;20430;-73
2023/07/07 03:39:04;;;;;;;5.07;4.03;;;12.30;1.00;;;;;;5086552;28;20772;-72
2023/07/07 03:41:30;;;;;;;3.97;3.77;;;12.40;1.00;;;;;;5096110;28;20371;-72
2023/07/07 03:43:56;;;;;;;4.63;4.20;;;12.40;1.00;;;;;;5094947;28;20449;-68
2023/07/07 03:46:25;;;;;;;9.63;4.07;;;12.40;1.00;;;;;;5097002;28;20227;-72
2023/07/07 03:48:53;;;;;;;7.40;5.20;;;12.40;1.00;;;;;;5079054;28;20411;-73
2023/07/07 03:51:19;;;;;;;7.57;4.67;;;12.50;1.00;;;;;;5077346;28;20387;-69
2023/07/07 03:57:25;;;;;;;6.00;5.20;;;12.60;1.00;;;;;;5094936;28;20475;-72
2023/07/07 03:59:51;;;;;;;5.73;5.23;;;12.60;1.00;;;;;;5095073;28;20438;-68
2023/07/07 04:02:17;;;;;;;6.10;5.50;;;12.70;1.00;;;;;;5095866;28;20428;-69
2023/07/07 04:04:46;;;;;;;7.77;5.73;;;12.80;1.00;;;;;;5096215;28;20394;-70
2023/07/07 04:07:12;;;;;;;7.20;6.50;;;12.90;1.00;;;;;;5096577;28;20439;-73
2023/07/07 04:09:38;;;;;;;9.13;6.20;;;13.10;1.00;;;;;;5081048;28;20374;-69
2023/07/07 04:12:08;;;;;;;8.77;6.80;;;13.20;1.00;;;;;;5057693;28;20409;-72
2023/07/07 04:14:34;;;;;;;11.00;7.10;;;13.20;1.00;;;;;;5075254;28;20444;-69
2023/07/07 04:17:07;;;;;;;10.67;6.77;;;13.30;1.00;;;;;;5076151;28;20454;-74
2023/07/07 04:19:33;;;;;;;10.70;6.47;;;13.40;1.00;;;;;;5075912;28;20817;-69
2023/07/07 04:22:19;;;;;;;15.37;6.60;;;13.40;1.00;;;;;;5056882;28;20426;-74
2023/07/07 04:25:05;;;;;;;17.90;8.50;;;13.50;1.00;;;;;;5075589;28;20420;-69
2023/07/07 04:27:32;;;;;;;8.57;7.30;;;13.60;1.00;;;;;;5075352;28;20416;-72
2023/07/07 04:33:45;;;;;;;10.57;7.40;;;13.80;1.00;;;;;;5096228;28;20494;-71
2023/07/07 04:36:14;;;;;;;8.10;6.50;;;13.80;1.00;;;;;;5077733;28;20430;-73
2023/07/07 04:38:46;;;;;;;6.73;6.10;;;13.90;1.00;;;;;;5089012;28;20416;-72
2023/07/07 04:41:19;;;;;;;11.43;8.40;;;14.00;1.00;;;;;;5074292;28;20816;-69
2023/07/07 04:43:54;;;;;;;12.50;7.43;;;14.00;1.00;;;;;;5074662;28;20484;-73
2023/07/07 04:46:34;;;;;;;11.60;8.60;;;14.10;1.00;;;;;;5095805;28;20407;-70
2023/07/07 04:49:24;;;;;;;;;;;;;;;;;;;;;
2023/07/07 04:51:50;;;;;;;13.97;8.03;;;14.10;1.00;;;;;;5094961;28;20738;-69
2023/07/07 04:54:19;;;;;;;11.80;8.23;;;14.20;1.00;;;;;;5095574;28;20526;-71
2023/07/07 04:57:05;;;;;;;12.73;9.27;;;14.20;1.00;;;;;;5073596;28;20210;-69
2023/07/07 04:59:31;;;;;;;12.50;7.63;;;14.30;1.00;;;;;;5093200;28;20489;-69
2023/07/07 05:04:42;;;;;;;7.30;6.60;;;14.40;1.00;;;;;;5095405;28;20433;-71
2023/07/07 05:07:17;;;;;;;12.60;7.07;;;14.50;1.00;;;;;;5077704;28;20415;-74
2023/07/07 05:16:23;;;;;;;5.53;5.13;;;14.70;1.00;;;;;;5092969;28;20462;-73
2023/07/07 05:18:50;;;;;;;7.63;5.93;;;14.90;1.00;;;;;;5095152;28;20427;-70
2023/07/07 05:21:19;;;;;;;7.37;5.43;;;15.00;1.00;;;;;;5075618;28;20800;-74
2023/07/07 05:23:45;;;;;;;6.60;5.40;;;15.10;1.00;;;;;;5095211;28;20419;-71
2023/07/07 05:30:11;;;;;;;6.27;5.33;;;15.30;1.00;;;;;;5093616;28;20463;-73
2023/07/07 05:32:47;;;;;;;;;;;;;;;;;;;;;
2023/07/07 05:35:28;;;;;;;9.63;5.90;;;15.50;1.00;;;;;;5094199;28;20846;-69
2023/07/07 05:37:53;;;;;;;7.37;6.60;;;15.70;1.00;;;;;;5094397;28;20414;-70
2023/07/07 05:44:21;;;;;;;7.73;5.80;;;15.90;1.00;;;;;;5077815;28;20297;-70
2023/07/07 05:47:46;;;;;;;;;;;;;;;;;;;;;
2023/07/07 05:50:32;;;;;;;6.10;5.33;;;16.10;1.00;;;;;;5069210;28;20416;-70
2023/07/07 05:56:33;;;;;;;7.07;5.10;;;16.30;1.00;;;;;;5079796;28;20817;-69
2023/07/07 05:59:09;;;;;;;;;;;;;;;;;;;;;
2023/07/07 06:05:40;;;;;;;5.13;4.70;;;16.70;1.00;;;;;;5073374;28;20420;-69
2023/07/07 06:08:07;;;;;;;5.67;5.00;;;16.80;1.00;;;;;;5075250;28;20409;-70
2023/07/07 06:10:41;;;;;;;6.37;4.00;;;16.90;1.00;;;;;;5074653;28;20851;-69
2023/07/07 06:13:17;;;;;;;9.90;5.40;;;17.00;1.00;;;;;;5073149;28;22290;-71
2023/07/07 06:16:27;;;;;;;6.20;4.70;;;17.10;1.00;;;;;;5094109;28;20450;-70
2023/07/07 06:19:13;;;;;;;4.63;4.27;;;17.20;1.00;;;;;;5109194;28;20934;-68
2023/07/07 06:28:41;;;;;;;5.57;3.93;;;17.50;1.00;;;;;;5092406;28;20427;-68
2023/07/07 06:37:28;;;;;;;4.60;3.97;;;17.90;1.00;;;;;;5094085;28;20943;-74
2023/07/07 06:40:04;;;;;;;;;;;;;;;;;;;;;
2023/07/07 06:42:34;;;;;;;4.10;3.80;;;18.00;1.00;;;;;;5073112;28;20408;-73
2023/07/07 06:45:00;;;;;;;3.73;3.43;;;18.10;99.90;;;;;;5086222;28;20484;-71
2023/07/07 06:47:56;;;;;;;;;;;;;;;;;;;;;
2023/07/07 06:50:28;;;;;;;4.30;3.93;;;18.20;99.90;;;;;;5112149;28;20439;-69
2023/07/07 06:52:56;;;;;;;4.00;3.70;;;18.30;99.90;;;;;;5113958;28;20407;-69
2023/07/07 06:55:23;;;;;;;7.23;4.10;;;18.50;99.90;;;;;;5113579;28;20851;-72
2023/07/07 07:04:26;;;;;;;4.70;4.00;;;18.60;99.90;;;;;;5072637;28;20916;-73
2023/07/07 07:10:09;;;;;;;4.03;3.53;;;18.80;99.90;;;;;;5087334;28;20922;-73
2023/07/07 07:12:35;;;;;;;4.40;3.33;;;18.90;99.90;;;;;;5072504;28;21587;-73
2023/07/07 07:15:01;;;;;;;4.30;3.90;;;19.00;99.90;;;;;;5073016;28;20455;-71
2023/07/07 07:18:20;;;;;;;3.57;3.27;;;19.10;99.90;;;;;;5079328;28;20426;-70
2023/07/07 07:20:54;;;;;;;7.67;3.50;;;19.20;99.90;;;;;;5075445;28;20185;-71
2023/07/07 07:24:07;;;;;;;3.60;3.40;;;19.30;99.90;;;;;;5113186;28;20450;-73
2023/07/07 07:26:33;;;;;;;4.80;3.57;;;19.40;99.90;;;;;;5112551;28;20402;-74
2023/07/07 07:29:17;;;;;;;5.60;4.40;;;19.50;99.90;;;;;;5080640;28;20523;-74
2023/07/07 07:34:35;;;;;;;8.90;3.67;;;19.60;99.90;;;;;;5072699;28;20477;-74
2023/07/07 07:40:42;;;;;;;6.63;3.57;;;19.80;99.90;;;;;;5071822;28;20545;-74
2023/07/07 07:43:11;;;;;;;5.17;4.70;;;20.00;99.90;;;;;;5073581;28;20419;-75
2023/07/07 07:52:26;;;;;;;9.20;6.30;;;20.20;99.90;;;;;;5071716;28;20443;-68
2023/07/07 07:55:20;;;;;;;4.77;4.37;;;20.30;99.90;;;;;;5071902;28;20420;-68
2023/07/07 07:57:46;;;;;;;6.17;4.13;;;20.40;99.90;;;;;;5054966;28;20431;-71
2023/07/07 08:00:13;;;;;;;4.80;3.60;;;20.50;99.90;;;;;;5072717;28;20436;-70
2023/07/07 08:02:44;;;;;;;10.00;4.50;;;20.50;99.90;;;;;;5071605;28;20420;-69
2023/07/07 08:08:17;;;;;;;5.30;4.07;;;20.70;99.90;;;;;;5072298;28;20537;-71
2023/07/07 08:14:19;;;;;;;4.33;3.50;;;21.00;99.90;;;;;;5073305;28;20447;-69
2023/07/07 08:16:46;;;;;;;4.73;3.87;;;21.10;99.90;;;;;;5072157;28;20452;-69
2023/07/07 08:19:13;;;;;;;6.87;5.80;;;21.20;99.90;;;;;;5108076;28;20528;-72
2023/07/07 08:21:39;;;;;;;3.90;3.60;;;21.30;99.90;;;;;;5111358;28;20399;-75
2023/07/07 08:24:06;;;;;;;5.47;3.70;;;21.40;99.90;;;;;;5115556;28;20450;-70
2023/07/07 08:26:35;;;;;;;4.33;3.33;;;21.40;99.90;;;;;;5098329;28;20410;-72
2023/07/07 08:32:05;;;;;;;4.80;3.27;;;21.50;99.90;;;;;;5074678;28;20804;-69
2023/07/07 08:34:34;;;;;;;3.20;3.00;;;21.60;99.90;;;;;;5075774;28;20419;-75
2023/07/07 08:37:00;;;;;;;4.23;2.70;;;21.60;99.90;;;;;;5074549;28;20459;-74
2023/07/07 08:39:28;;;;;;;3.30;3.00;;;21.70;99.90;;;;;;5060160;28;20431;-69
2023/07/07 08:42:01;;;;;;;8.47;2.90;;;21.90;99.90;;;;;;5074652;28;20897;-75
2023/07/07 08:44:31;;;;;;;3.67;2.97;;;22.10;99.90;;;;;;5082398;28;20452;-74
2023/07/07 08:47:18;;;;;;;3.30;3.03;;;22.30;99.90;;;;;;5078149;28;20878;-69
2023/07/07 08:50:01;;;;;;;4.47;2.80;;;22.40;99.90;;;;;;5075309;28;20905;-70
2023/07/07 08:53:10;;;;;;;6.10;3.70;;;22.50;99.90;;;;;;5074844;28;20407;-76
2023/07/07 09:02:07;;;;;;;4.03;2.87;;;22.60;99.90;;;;;;5094692;28;20426;-74
2023/07/07 09:04:39;;;;;;;4.90;2.73;;;22.70;99.90;;;;;;5095563;28;20419;-69
2023/07/07 09:07:33;;;;;;;4.87;3.63;;;22.60;99.90;;;;;;5094602;28;20431;-71
2023/07/07 09:10:17;;;;;;;2.37;2.10;;;22.40;99.90;;;;;;5077186;28;20462;-76
2023/07/07 09:12:52;;;;;;;3.10;2.90;;;22.50;99.90;;;;;;5077747;28;20427;-69
2023/07/07 09:15:36;;;;;;;3.43;3.07;;;22.70;99.90;;;;;;5095190;28;20462;-76
2023/07/07 09:18:22;;;;;;;6.00;2.77;;;23.00;99.90;;;;;;5103245;28;20425;-71
2023/07/07 09:21:05;;;;;;;3.53;2.60;;;23.00;99.90;;;;;;5114897;28;20391;-69
2023/07/07 09:23:38;;;;;;;2.83;2.40;;;23.00;99.90;;;;;;5115801;28;20434;-74
2023/07/07 09:26:30;;;;;;;4.23;2.30;;;23.20;99.90;;;;;;5115272;28;20430;-69
2023/07/07 09:28:58;;;;;;;4.93;2.30;;;23.60;99.90;;;;;;5095901;28;20439;-69
2023/07/07 09:31:31;;;;;;;5.60;2.90;;;23.80;99.90;;;;;;5094183;28;20764;-76
2023/07/07 09:33:59;;;;;;;3.23;2.63;;;23.90;99.90;;;;;;5093350;28;20450;-75
2023/07/07 09:36:34;;;;;;;6.87;2.63;;;24.20;99.90;;;;;;5075662;28;21166;-76
2023/07/07 09:39:18;;;;;;;4.27;2.60;;;24.30;99.90;;;;;;5084530;28;20424;-76
2023/07/07 09:41:56;;;;;;;5.90;2.60;;;24.60;99.90;;;;;;5072167;28;20492;-70
2023/07/07 09:44:50;;;;;;;4.27;3.17;;;25.00;99.90;;;;;;5073582;28;20448;-71
2023/07/07 09:47:30;;;;;;;5.03;2.90;;;25.10;99.90;;;;;;5060119;28;20421;-74
2023/07/07 09:50:28;;;;;;;5.37;2.83;;;25.30;99.90;;;;;;5115029;28;20938;-75
2023/07/07 09:53:13;;;;;;;2.50;2.30;;;25.40;99.90;;;;;;5115085;28;20427;-75
2023/07/07 09:55:40;;;;;;;3.47;3.03;;;25.80;99.90;;;;;;5107334;28;20550;-71
2023/07/07 09:58:27;;;;;;;3.57;2.97;;;26.20;99.90;;;;;;5093147;28;20419;-70
2023/07/07 10:01:01;;;;;;;3.17;2.30;;;26.30;99.90;;;;;;5093443;28;20435;-68
2023/07/07 10:03:36;;;;;;;4.40;2.90;;;25.70;99.90;;;;;;5075491;28;20515;-74
2023/07/07 10:06:18;;;;;;;5.80;2.80;;;25.20;99.90;;;;;;5092118;28;20450;-74
2023/07/07 10:08:44;;;;;;;3.60;2.47;;;24.70;99.90;;;;;;5087079;28;20904;-75
2023/07/07 10:11:27;;;;;;;5.17;2.80;;;24.70;99.90;;;;;;5055622;28;20418;-75
2023/07/07 10:13:54;;;;;;;4.47;2.50;;;24.90;99.90;;;;;;5083478;28;20292;-74
2023/07/07 10:16:30;;;;;;;4.70;3.40;;;25.60;99.90;;;;;;5094032;28;20455;-68
2023/07/07 10:19:08;;;;;;;4.50;2.70;;;26.30;99.90;;;;;;5109833;28;20767;-77
2023/07/07 10:21:35;;;;;;;2.40;2.20;;;26.50;99.90;;;;;;5113055;28;20459;-71
2023/07/07 10:24:01;;;;;;;3.63;2.60;;;26.90;99.90;;;;;;5095786;28;20426;-75
2023/07/07 10:26:26;;;;;;;3.73;2.77;;;27.10;99.90;;;;;;5114185;28;20414;-71
2023/07/07 10:29:02;;;;;;;3.50;2.30;;;27.30;99.90;;;;;;5099889;28;20435;-77
2023/07/07 10:31:27;;;;;;;2.93;2.40;;;27.90;99.90;;;;;;5079687;28;20234;-69
2023/07/07 10:34:00;;;;;;;5.10;2.73;;;28.30;99.90;;;;;;5073607;28;20427;-76
2023/07/07 10:36:33;;;;;;;3.97;3.00;;;28.30;99.90;;;;;;5073613;28;20554;-69
2023/07/07 10:38:59;;;;;;;3.60;2.77;;;28.60;99.90;;;;;;5082137;28;20803;-74
2023/07/07 10:41:26;;;;;;;2.63;2.40;;;28.90;99.90;;;;;;5090990;28;20419;-73
2023/07/07 10:43:53;;;;;;;3.90;2.47;;;29.10;99.90;;;;;;5064615;28;20456;-78
2023/07/07 10:46:19;;;;;;;3.50;2.20;;;28.90;99.90;;;;;;5055501;28;20412;-70
2023/07/07 10:48:46;;;;;;;5.03;2.53;;;29.10;99.90;;;;;;5101404;28;20906;-72
2023/07/07 10:51:24;;;;;;;2.40;2.20;;;29.00;99.90;;;;;;5113150;28;20633;-76
2023/07/07 10:54:06;;;;;;;3.30;2.70;;;29.10;99.90;;;;;;5095639;28;20430;-76
2023/07/07 10:57:09;;;;;;;3.60;2.70;;;29.10;99.90;;;;;;5113951;28;20457;-77
2023/07/07 10:59:59;;;;;;;4.70;2.43;;;28.90;99.90;;;;;;4996586;28;20509;-70
2023/07/07 11:02:46;;;;;;;2.93;2.73;;;29.30;99.90;;;;;;5072626;28;20403;-71
2023/07/07 11:05:55;;;;;;;3.97;3.10;;;29.60;99.90;;;;;;5073286;28;20956;-70
2023/07/07 11:08:33;;;;;;;2.93;2.20;;;29.50;99.90;;;;;;5062953;28;20490;-77
2023/07/07 11:11:19;;;;;;;2.33;2.13;;;29.60;99.90;;;;;;5071947;28;20466;-78
2023/07/07 11:13:58;;;;;;;3.17;2.87;;;29.90;99.90;;;;;;5081560;28;20458;-77
2023/07/07 11:16:55;;;;;;;5.63;2.50;;;30.00;99.90;;;;;;5092281;28;20454;-70
2023/07/07 11:19:36;;;;;;;2.77;2.57;;;29.90;99.90;;;;;;5073145;28;20436;-69
2023/07/07 11:22:20;;;;;;;4.73;2.33;;;29.50;99.90;;;;;;5072030;28;20404;-74
2023/07/07 11:24:46;;;;;;;4.13;2.80;;;29.70;99.90;;;;;;5072736;28;20511;-72
2023/07/07 11:27:38;;;;;;;4.00;2.90;;;30.10;99.90;;;;;;5072741;28;20538;-77
2023/07/07 11:30:28;;;;;;;4.93;2.47;;;30.60;99.90;;;;;;5043779;28;20186;-74
2023/07/07 11:33:16;;;;;;;4.03;2.70;;;31.00;99.90;;;;;;5072861;28;20406;-74
2023/07/07 11:36:16;;;;;;;3.70;2.47;;;30.70;99.90;;;;;;5072024;28;20949;-69
2023/07/07 11:38:50;;;;;;;4.00;2.83;;;30.50;99.90;;;;;;5078845;28;20477;-71
2023/07/07 11:41:36;;;;;;;3.13;2.43;;;30.60;99.90;;;;;;5091865;28;20817;-68
2023/07/07 11:44:26;;;;;;;2.87;2.60;;;30.60;99.90;;;;;;5073350;28;20528;-71
2023/07/07 11:47:32;;;;;;;5.20;2.60;;;30.60;99.90;;;;;;5092938;28;20407;-77
2023/07/07 11:50:09;;;;;;;3.43;2.23;;;30.20;99.90;;;;;;5072489;28;20438;-75
2023/07/07 11:52:42;;;;;;;2.70;2.50;;;30.00;99.90;;;;;;5072590;28;20865;-70
2023/07/07 11:55:14;;;;;;;3.03;2.20;;;30.10;99.90;;;;;;5071673;28;20576;-72
2023/07/07 11:58:04;;;;;;;3.03;2.30;;;30.30;99.90;;;;;;5074765;28;20432;-78
2023/07/07 12:00:45;;;;;;;3.93;3.63;;;30.60;99.90;;;;;;5096121;28;20415;-77
2023/07/07 12:03:30;;;;;;;2.70;2.50;;;30.80;99.90;;;;;;5095702;28;20450;-77
2023/07/07 12:06:00;;;;;;;3.07;2.87;;;30.80;99.90;;;;;;5096910;28;20414;-75
2023/07/07 12:08:36;;;;;;;2.43;2.23;;;31.00;99.90;;;;;;5091996;28;20929;-68
2023/07/07 12:11:04;;;;;;;2.67;2.47;;;31.50;99.90;;;;;;5074434;28;20399;-69
2023/07/07 12:13:35;;;;;;;6.13;2.90;;;31.40;99.90;;;;;;5085634;28;20979;-67
2023/07/07 12:16:15;;;;;;;2.67;1.87;;;31.60;99.90;;;;;;5096672;28;20454;-74
2023/07/07 12:18:46;;;;;;;2.67;2.30;;;31.90;99.90;;;;;;5110031;28;20841;-72
2023/07/07 12:21:23;;;;;;;4.20;3.60;;;32.20;99.90;;;;;;5116219;28;20434;-68
2023/07/07 12:23:55;;;;;;;2.10;1.90;;;32.10;99.90;;;;;;5116927;28;20421;-75
2023/07/07 12:26:29;;;;;;;3.57;2.57;;;32.10;99.90;;;;;;5107565;28;21178;-70
2023/07/07 12:28:58;;;;;;;2.73;2.53;;;32.00;99.90;;;;;;5094208;28;20460;-75
2023/07/07 12:31:27;;;;;;;3.60;2.80;;;32.60;99.90;;;;;;5094559;28;20412;-74
2023/07/07 12:33:53;;;;;;;2.40;2.20;;;32.70;99.90;;;;;;5096220;28;20477;-68
2023/07/07 12:36:22;;;;;;;4.33;2.50;;;32.20;99.90;;;;;;5096139;28;20501;-78
2023/07/07 12:38:50;;;;;;;3.00;2.60;;;32.10;99.90;;;;;;5088423;28;20889;-70
2023/07/07 12:41:21;;;;;;;3.27;2.53;;;32.00;99.90;;;;;;5074488;28;20530;-69
2023/07/07 12:43:52;;;;;;;6.10;2.80;;;32.10;99.90;;;;;;5088518;28;20930;-68
2023/07/07 12:46:31;;;;;;;4.90;2.87;;;32.50;99.90;;;;;;5095392;28;20434;-75
2023/07/07 12:48:59;;;;;;;4.20;3.33;;;32.60;99.90;;;;;;5111244;28;20421;-74
2023/07/07 12:51:31;;;;;;;2.53;2.33;;;32.00;99.90;;;;;;5115376;27;20494;-76
2023/07/07 12:53:57;;;;;;;5.10;2.63;;;31.40;99.90;;;;;;5106671;28;20873;-74
2023/07/07 12:56:26;;;;;;;5.83;2.53;;;31.50;99.90;;;;;;5075318;28;20491;-71
2023/07/07 12:58:56;;;;;;;3.33;2.27;;;31.60;99.90;;;;;;5087345;28;20435;-72
2023/07/07 13:01:26;;;;;;;3.73;2.60;;;31.80;99.90;;;;;;5092523;28;20785;-66
2023/07/07 13:04:01;;;;;;;5.70;2.77;;;32.00;99.90;;;;;;5094408;28;20423;-73
2023/07/07 13:06:41;;;;;;;3.10;2.73;;;32.40;99.90;;;;;;5095038;28;20402;-70
2023/07/07 13:09:12;;;;;;;2.50;2.30;;;32.60;99.90;;;;;;5084372;28;20454;-74
2023/07/07 13:11:41;;;;;;;4.17;2.70;;;32.70;99.90;;;;;;5074272;28;20404;-74
2023/07/07 13:14:33;;;;;;;3.27;2.63;;;32.40;99.90;;;;;;5086225;28;20459;-68
2023/07/07 13:17:16;;;;;;;3.40;2.50;;;31.70;99.90;;;;;;5095346;28;20454;-77
2023/07/07 13:20:02;;;;;;;2.57;2.37;;;31.00;99.90;;;;;;5075220;28;20434;-74
2023/07/07 13:22:37;;;;;;;2.63;2.20;;;31.10;99.90;;;;;;5074547;28;20422;-76
2023/07/07 13:25:16;;;;;;;2.43;2.20;;;31.90;99.90;;;;;;5074501;28;20454;-70
2023/07/07 13:27:42;;;;;;;6.07;2.47;;;32.70;99.90;;;;;;5076296;28;20485;-71
2023/07/07 13:30:24;;;;;;;2.73;2.53;;;32.80;99.90;;;;;;5094256;28;20399;-75
2023/07/07 13:32:49;;;;;;;3.20;2.43;;;33.20;99.90;;;;;;5095257;28;20161;-73
2023/07/07 13:35:15;;;;;;;3.27;2.97;;;33.60;99.90;;;;;;5094162;28;20467;-74
2023/07/07 13:37:41;;;;;;;4.63;2.70;;;33.70;99.90;;;;;;5095188;28;20204;-68
2023/07/07 13:40:14;;;;;;;2.53;2.27;;;33.20;99.90;;;;;;5075229;28;20182;-70
2023/07/07 13:42:46;;;;;;;4.57;2.47;;;32.40;99.90;;;;;;5074129;28;20163;-69
2023/07/07 13:45:19;;;;;;;2.50;2.27;;;31.50;99.90;;;;;;5093062;28;20923;-71
2023/07/07 13:47:52;;;;;;;5.43;3.20;;;30.70;99.90;;;;;;5100525;28;20484;-69
2023/07/07 13:50:27;;;;;;;2.67;2.47;;;30.10;99.90;;;;;;5114217;28;20929;-71
2023/07/07 13:53:02;;;;;;;6.73;3.10;;;30.10;99.90;;;;;;5114356;28;20405;-74
2023/07/07 13:55:35;;;;;;;2.60;2.40;;;30.20;99.90;;;;;;5074400;28;20444;-77
2023/07/07 13:58:03;;;;;;;2.80;2.50;;;30.20;99.90;;;;;;5075215;28;20490;-75
2023/07/07 14:00:35;;;;;;;3.17;2.90;;;30.10;99.90;;;;;;5093039;28;20411;-71
2023/07/07 14:03:04;;;;;;;5.37;3.63;;;30.10;99.90;;;;;;5093882;28;20396;-73
2023/07/07 14:05:33;;;;;;;4.37;2.90;;;30.00;99.90;;;;;;5094505;28;20403;-69
2023/07/07 14:08:05;;;;;;;6.30;3.23;;;29.50;99.90;;;;;;5092655;28;20408;-76
2023/07/07 14:10:41;;;;;;;3.10;2.83;;;28.90;99.90;;;;;;5073326;28;20418;-75
2023/07/07 14:13:19;;;;;;;4.63;2.93;;;28.30;99.90;;;;;;5077707;28;20567;-75
2023/07/07 14:15:57;;;;;;;3.07;2.87;;;27.90;99.90;;;;;;5076015;28;20858;-74
2023/07/07 14:18:28;;;;;;;5.83;2.73;;;27.60;99.90;;;;;;5103245;28;20447;-71
2023/07/07 14:20:55;;;;;;;3.70;2.97;;;27.80;99.90;;;;;;5113157;28;20407;-70
2023/07/07 14:23:22;;;;;;;8.20;3.57;;;27.70;99.90;;;;;;5056112;28;20487;-70
2023/07/07 14:25:55;;;;;;;5.53;3.17;;;27.60;99.90;;;;;;5073733;28;20412;-75
2023/07/07 14:28:27;;;;;;;3.73;3.43;;;27.30;99.90;;;;;;5078026;28;20488;-68
2023/07/07 14:31:01;;;;;;;5.13;3.03;;;27.50;99.90;;;;;;5093224;28;20403;-76
2023/07/07 14:33:37;;;;;;;6.13;3.10;;;27.70;99.90;;;;;;5091983;28;20554;-74
2023/07/07 14:36:13;;;;;;;7.10;3.37;;;27.50;99.90;;;;;;5104380;28;20897;-70
2023/07/07 14:38:50;;;;;;;4.27;3.20;;;27.30;99.90;;;;;;5055615;28;20443;-76
2023/07/07 14:41:19;;;;;;;5.17;3.23;;;27.50;99.90;;;;;;5072021;28;20397;-74
2023/07/07 14:43:45;;;;;;;4.40;3.07;;;27.90;99.90;;;;;;5078934;28;20461;-73
2023/07/07 14:46:28;;;;;;;5.63;3.20;;;27.90;99.90;;;;;;5075941;28;20427;-74
2023/07/07 14:48:56;;;;;;;3.93;3.20;;;28.00;99.90;;;;;;5108962;28;20195;-75
2023/07/07 14:51:28;;;;;;;4.07;3.67;;;28.20;99.90;;;;;;5112207;28;20414;-75
2023/07/07 14:53:59;;;;;;;3.53;3.27;;;28.10;99.90;;;;;;5093585;28;20999;-75
2023/07/07 14:56:38;;;;;;;5.30;3.60;;;28.00;99.90;;;;;;5092078;28;20599;-75
2023/07/07 14:59:20;;;;;;;4.33;3.40;;;28.20;99.90;;;;;;5084728;28;20436;-69
2023/07/07 15:01:57;;;;;;;5.43;3.80;;;28.20;99.90;;;;;;5054436;28;20816;-72
2023/07/07 15:04:30;;;;;;;4.57;3.47;;;27.90;99.90;;;;;;5090609;28;20428;-75
2023/07/07 15:06:56;;;;;;;9.37;3.30;;;27.70;99.90;;;;;;5093458;28;20494;-71
2023/07/07 15:09:22;;;;;;;4.00;3.47;;;27.40;99.90;;;;;;5081025;28;20893;-70